Terminal Aerodrome Forecast
Issued by NWS Newport/Morehead City, NC

Home | Current Version | Previous Version | Text Only | Print | Product List | Glossary On
Versions: 1 2 3 4 5 6 7 8 9 10 11 12 13 14 15 16 17 18 19 20 21 22 23 24
000
FTUS42 KMHX 162341
TAFEWN
TAF
KEWN 162341Z 1700/1724 19008G14KT P6SM FEW250
     FM170600 20007KT P6SM SCT010
     FM171000 20006KT P6SM SCT005
     FM171300 20008G13KT P6SM FEW050=

USA.gov is the U.S. government's official web portal to all federal, state and local government web resources and services.